Cinquanta 50 — 9HB5294 — position and weather

sailwx.info

Track history (hours):
 
Tides and Currents Weather Stations Pressure Air Temp Water Temp Dewpoint Dewpoint Depression Visibility Wind Speed Wind Dir Waves Ship Positions

Cinquanta 50

Last reported at 2017-Sep-22 01:57 UTC. Time now 2017-Sep-24 14:20 UTC.
Position N 37°56' E 023°39'.

Length 36 m.

Type: Pleasure craft. MMSI: 249798000.

Date/timePositionNaut miles runAvg speedWind from/ knotsBaromVisibWave heightAir tempDewpointWater temp
2017-Sep-22 01:57N 37°56' E 023°39'0 0.0
2017-Sep-22 01:30N 37°56' E 023°39'0 0.0
2017-Sep-22 01:00N 37°56' E 023°39'0 0.0
2017-Sep-22 00:30N 37°56' E 023°39'0 0.0
2017-Sep-22 00:00N 37°56' E 023°39'0 0.0
2017-Sep-21 23:30N 37°56' E 023°39'0 0.0
2017-Sep-21 23:00N 37°56' E 023°39'0 0.0
2017-Sep-21 22:30N 37°56' E 023°39'0 0.0
2017-Sep-21 21:57N 37°56' E 023°39'0 0.0
2017-Sep-21 21:30N 37°56' E 023°39'0 0.0
2017-Sep-21 21:00N 37°56' E 023°39'0 0.0
2017-Sep-21 20:30N 37°56' E 023°39'0 0.0
2017-Sep-21 20:00N 37°56' E 023°39'0 0.0
2017-Sep-21 19:30N 37°56' E 023°39'0 0.0
2017-Sep-21 19:00N 37°56' E 023°39'0 0.0
2017-Sep-21 18:30N 37°56' E 023°39'0 0.0
2017-Sep-21 18:00N 37°56' E 023°39'0 0.0
2017-Sep-21 17:30N 37°56' E 023°39'0 0.0
2017-Sep-21 16:57N 37°56' E 023°39'0 0.0
2017-Sep-21 16:30N 37°56' E 023°39'0 0.0
2017-Sep-21 16:00N 37°56' E 023°39'0 0.5
2017-Sep-21 15:30N 37°56' E 023°39'3 7.0
2017-Sep-21 15:01N 37°53' E 023°41'4 7.2
2017-Sep-21 14:31N 37°50' E 023°44'4 8.5
2017-Sep-21 14:00N 37°46' E 023°47'47 8.0
2017-Sep-21 08:06N 37°32' E 024°44'1 8.3
2017-Sep-21 08:01N 37°32' E 024°45'4 8.4
2017-Sep-21 07:30N 37°32' E 024°50'11 7.7
2017-Sep-21 06:05N 37°31' E 025°04'1 7.5
2017-Sep-21 06:00N 37°31' E 025°05'4 7.2
2017-Sep-21 05:30N 37°31' E 025°09'4 7.6
2017-Sep-21 05:00N 37°31' E 025°14'6 0.2
2017-Sep-19 23:00N 37°30' E 025°22'4 7.5
2017-Sep-19 22:28N 37°28' E 025°18'4 9.2
2017-Sep-19 22:00N 37°24' E 025°18'2 4.8
2017-Sep-19 21:30N 37°25' E 025°21'0 0.0
2017-Sep-19 20:57N 37°25' E 025°21'0 0.1
2017-Sep-19 20:30N 37°24' E 025°21'0 0.0
2017-Sep-19 20:00N 37°24' E 025°21'0 0.0
2017-Sep-19 19:27N 37°24' E 025°21'0 0.0
2017-Sep-19 19:00N 37°24' E 025°21'0 0.1
2017-Sep-19 18:30N 37°25' E 025°21'0 0.0
2017-Sep-19 18:00N 37°24' E 025°21'0 0.0
2017-Sep-19 17:27N 37°24' E 025°21'0 0.0
2017-Sep-19 16:57N 37°24' E 025°21'0 0.0
2017-Sep-19 16:30N 37°24' E 025°21'0 0.0
2017-Sep-19 16:00N 37°24' E 025°21'0 0.0
2017-Sep-19 15:30N 37°24' E 025°21'0 0.0
2017-Sep-19 15:00N 37°25' E 025°21'0 0.0
2017-Sep-19 14:27N 37°24' E 025°21'0 0.1
2017-Sep-19 14:00N 37°24' E 025°21'0 0.1
2017-Sep-19 13:30N 37°25' E 025°21'0 0.0
2017-Sep-19 13:00N 37°25' E 025°21'0 0.0
2017-Sep-19 12:30N 37°25' E 025°21'0 0.0
2017-Sep-19 12:00N 37°25' E 025°21'0 0.0
2017-Sep-19 11:27N 37°25' E 025°21'0 0.0
2017-Sep-19 11:00N 37°25' E 025°21'0 0.0
2017-Sep-19 10:30N 37°25' E 025°21'0 0.0
2017-Sep-19 10:00N 37°25' E 025°21'0 0.0
2017-Sep-19 09:30N 37°25' E 025°21'0 0.0
2017-Sep-19 08:57N 37°25' E 025°21'0 1.0
2017-Sep-19 08:31N 37°24' E 025°21'1 1.4
2017-Sep-19 07:47N 37°25' E 025°22'0 0.0
2017-Sep-19 07:29N 37°25' E 025°22'0 0.0
2017-Sep-19 06:59N 37°25' E 025°22'0 0.0
2017-Sep-19 06:29N 37°25' E 025°22'0 0.0
2017-Sep-19 05:59N 37°25' E 025°22'0 0.0
2017-Sep-19 05:29N 37°25' E 025°22'0 0.0
2017-Sep-19 04:59N 37°25' E 025°22'0 0.0
2017-Sep-19 04:26N 37°25' E 025°22'0 0.0
2017-Sep-19 03:59N 37°25' E 025°22'0 0.0
2017-Sep-19 03:23N 37°25' E 025°22'0 0.0
2017-Sep-19 02:59N 37°25' E 025°22'0 0.0
2017-Sep-19 02:26N 37°25' E 025°22'0 0.0
2017-Sep-19 01:56N 37°25' E 025°22'0 0.0
2017-Sep-19 01:29N 37°25' E 025°22'0 0.0
2017-Sep-19 00:59N 37°25' E 025°22'0 0.0
2017-Sep-19 00:29N 37°25' E 025°22'0 0.0
2017-Sep-18 23:56N 37°25' E 025°22'0 0.0
2017-Sep-18 23:29N 37°25' E 025°22'0 0.0
2017-Sep-18 22:59N 37°25' E 025°22'0 0.0
2017-Sep-18 22:23N 37°25' E 025°22'0 0.0
2017-Sep-18 21:59N 37°25' E 025°22'0 0.0
2017-Sep-18 21:29N 37°25' E 025°22'0 0.0
2017-Sep-18 20:56N 37°25' E 025°22'0 0.0
2017-Sep-18 20:29N 37°25' E 025°22'0 0.0
2017-Sep-18 19:59N 37°25' E 025°22'0 0.0
2017-Sep-18 19:29N 37°25' E 025°22'0 0.0
2017-Sep-18 18:56N 37°25' E 025°22'0 0.0
2017-Sep-18 18:29N 37°25' E 025°22'0 0.0
2017-Sep-18 17:59N 37°25' E 025°22'0 0.0
2017-Sep-18 17:26N 37°25' E 025°22'0 0.0
2017-Sep-18 16:59N 37°25' E 025°22'0 0.0
2017-Sep-18 16:29N 37°25' E 025°22'0 0.0
2017-Sep-18 15:56N 37°25' E 025°22'0 0.0
2017-Sep-18 15:29N 37°25' E 025°22'0 0.0
2017-Sep-18 14:56N 37°25' E 025°22'0 0.0
2017-Sep-18 14:29N 37°25' E 025°22'0 0.0
2017-Sep-18 13:41N 37°25' E 025°22'0 0.0
2017-Sep-18 13:29N 37°25' E 025°22'0 0.0
2017-Sep-18 12:59N 37°25' E 025°22'0 0.0
2017-Sep-18 12:29N 37°25' E 025°22'0 0.0
2017-Sep-18 11:53N 37°25' E 025°22'0 0.0
2017-Sep-18 11:26N 37°25' E 025°22'0 0.0
2017-Sep-18 10:44N 37°25' E 025°22'0 0.1
2017-Sep-18 10:23N 37°25' E 025°22'0 0.0
2017-Sep-18 09:56N 37°25' E 025°22'0 0.0
2017-Sep-18 09:26N 37°25' E 025°22'0 0.0
2017-Sep-18 08:59N 37°25' E 025°22'0 0.1
2017-Sep-18 08:26N 37°25' E 025°22'1 3.1
2017-Sep-18 08:01N 37°24' E 025°21'1 1.7
2017-Sep-18 07:25N 37°25' E 025°20'0 0.0
2017-Sep-18 06:58N 37°25' E 025°20'0 0.0
2017-Sep-18 06:28N 37°25' E 025°20'0 0.0
2017-Sep-18 05:58N 37°25' E 025°20'0 0.0
2017-Sep-18 05:25N 37°25' E 025°20'0 0.0
2017-Sep-18 04:58N 37°25' E 025°20'0 0.0
2017-Sep-18 04:28N 37°25' E 025°20'0 0.0
2017-Sep-18 03:58N 37°25' E 025°20'0 0.0
2017-Sep-18 03:28N 37°25' E 025°20'0 0.0
2017-Sep-18 02:58N 37°25' E 025°20'0 0.0
2017-Sep-18 02:28N 37°25' E 025°20'0 0.0
2017-Sep-18 01:55N 37°25' E 025°20'0 0.0
2017-Sep-18 01:28N 37°25' E 025°20'0 0.0
2017-Sep-18 00:58N 37°25' E 025°20'0 0.0
2017-Sep-18 00:28N 37°25' E 025°20'0 0.0
2017-Sep-17 23:58N 37°25' E 025°20'0 0.0
2017-Sep-17 23:25N 37°25' E 025°20'0 0.0
2017-Sep-17 22:58N 37°25' E 025°20'0 0.0
2017-Sep-17 22:28N 37°25' E 025°20'0 0.0
2017-Sep-17 21:58N 37°25' E 025°20'0 0.0
2017-Sep-17 21:28N 37°25' E 025°20'0 0.0
2017-Sep-17 20:58N 37°25' E 025°20'0 0.0
2017-Sep-17 20:28N 37°25' E 025°20'0 0.0
2017-Sep-17 19:58N 37°25' E 025°20'0 0.0
2017-Sep-17 19:22N 37°25' E 025°20'0 0.0
2017-Sep-17 18:58N 37°25' E 025°20'0 0.0
2017-Sep-17 18:25N 37°25' E 025°20'0 0.0
2017-Sep-17 17:58N 37°25' E 025°20'0 0.0
2017-Sep-17 17:28N 37°25' E 025°20'0 0.0
2017-Sep-17 16:58N 37°25' E 025°20'0 0.0
2017-Sep-17 16:10N 37°25' E 025°20'0 0.0
2017-Sep-17 15:55N 37°25' E 025°20'0 0.0
2017-Sep-17 15:28N 37°25' E 025°20'0 0.0
2017-Sep-17 14:58N 37°25' E 025°20'0 0.0
2017-Sep-17 14:28N 37°25' E 025°20'0 0.0
2017-Sep-17 13:43N 37°25' E 025°20'0 0.1
2017-Sep-17 13:28N 37°25' E 025°20'0 0.0
2017-Sep-17 12:58N 37°25' E 025°20'0 0.0
2017-Sep-17 12:25N 37°25' E 025°20'0 0.0
2017-Sep-17 11:55N 37°25' E 025°20'0 0.0
2017-Sep-17 11:28N 37°25' E 025°20'0 0.3
2017-Sep-17 10:58N 37°25' E 025°21'0 0.1
2017-Sep-17 10:26N 37°25' E 025°21'0 0.0
2017-Sep-17 09:44N 37°25' E 025°21'0 0.0
2017-Sep-17 09:23N 37°25' E 025°21'0 0.0
2017-Sep-17 08:59N 37°25' E 025°21'0 0.0
2017-Sep-17 08:20N 37°25' E 025°21'0 0.1
2017-Sep-17 07:59N 37°25' E 025°21'0 0.0
2017-Sep-17 07:29N 37°25' E 025°21'0 0.0
2017-Sep-17 06:47N 37°25' E 025°21'0 0.0
2017-Sep-17 06:26N 37°25' E 025°21'0 0.0
2017-Sep-17 05:53N 37°25' E 025°21'0 0.0
2017-Sep-17 05:20N 37°25' E 025°21'0 0.0
2017-Sep-17 04:59N 37°25' E 025°21'0 0.0
2017-Sep-17 04:29N 37°25' E 025°21'0 0.0
2017-Sep-17 03:59N 37°25' E 025°21'0 0.0
2017-Sep-17 03:26N 37°25' E 025°21'0 0.0
2017-Sep-17 02:59N 37°25' E 025°21'0 0.0
2017-Sep-17 02:29N 37°25' E 025°21'0 0.0
2017-Sep-17 01:59N 37°25' E 025°21'0 0.0
2017-Sep-17 01:26N 37°25' E 025°21'0 0.0
2017-Sep-17 00:56N 37°25' E 025°21'0 0.7
2017-Sep-17 00:30N 37°24' E 025°20'5 9.3
2017-Sep-17 00:00N 37°21' E 025°16'5 9.4
2017-Sep-16 23:30N 37°21' E 025°10'7 9.2
2017-Sep-16 22:44N 37°21' E 025°01'2 9.2
2017-Sep-16 22:30N 37°21' E 024°58'5 9.1
2017-Sep-16 22:00N 37°21' E 024°53'5 9.2
2017-Sep-16 21:30N 37°23' E 024°47'54 9.1
2017-Sep-16 15:31N 37°47' E 023°46'0 9.2
2017-Sep-16 15:29N 37°47' E 023°46'4 8.5
2017-Sep-16 15:00N 37°51' E 023°43'5 9.3
2017-Sep-16 14:30N 37°55' E 023°40'1 2.8
2017-Sep-16 13:58N 37°56' E 023°39'0 0.0
2017-Sep-16 13:28N 37°56' E 023°39'0 0.0
2017-Sep-16 12:52N 37°56' E 023°39'0 0.0
2017-Sep-16 12:22N 37°56' E 023°39'0 0.0
2017-Sep-16 11:58N 37°56' E 023°39'0 0.0
2017-Sep-16 11:28N 37°56' E 023°39'0 0.0
2017-Sep-16 10:58N 37°56' E 023°39'0 0.0
2017-Sep-16 10:25N 37°56' E 023°39'0 0.0
2017-Sep-16 09:58N 37°56' E 023°39'0 0.0
2017-Sep-16 09:28N 37°56' E 023°39'0 0.0
2017-Sep-16 08:58N 37°56' E 023°39'0 0.0
2017-Sep-16 08:28N 37°56' E 023°39'0 0.0
2017-Sep-16 07:58N 37°56' E 023°39'0 0.0
2017-Sep-16 07:28N 37°56' E 023°39'0 0.0
2017-Sep-16 06:58N 37°56' E 023°39'0 0.0
2017-Sep-16 06:25N 37°56' E 023°39'0 0.0
2017-Sep-16 05:58N 37°56' E 023°39'0 0.0
2017-Sep-16 05:28N 37°56' E 023°39'0 0.0
2017-Sep-16 04:58N 37°56' E 023°39'0 0.0
2017-Sep-16 04:28N 37°56' E 023°39'0 0.0
2017-Sep-16 03:49N 37°56' E 023°39'0 0.0
2017-Sep-16 03:28N 37°56' E 023°39'0 0.0
2017-Sep-16 02:58N 37°56' E 023°39'0 0.0
2017-Sep-16 02:28N 37°56' E 023°39'0 0.0
2017-Sep-16 01:58N 37°56' E 023°39'0 0.0
2017-Sep-16 01:25N 37°56' E 023°39'0 0.0
2017-Sep-16 00:58N 37°56' E 023°39'0 0.0
2017-Sep-16 00:28N 37°56' E 023°39'0 0.0
2017-Sep-15 23:58N 37°56' E 023°39'0 0.0
2017-Sep-15 23:28N 37°56' E 023°39'0 0.0
2017-Sep-15 22:58N 37°56' E 023°39'0 0.0
2017-Sep-15 22:28N 37°56' E 023°39'0 0.0
2017-Sep-15 21:55N 37°56' E 023°39'0 0.0
2017-Sep-15 21:28N 37°56' E 023°39'0 0.0
2017-Sep-15 20:58N 37°56' E 023°39'0 0.0
2017-Sep-15 20:28N 37°56' E 023°39'0 0.0
2017-Sep-15 19:58N 37°56' E 023°39'0 0.0
2017-Sep-15 19:28N 37°56' E 023°39'0 0.0
2017-Sep-15 18:55N 37°56' E 023°39'0 0.0
2017-Sep-15 18:28N 37°56' E 023°39'  
Track history (hours):
 
Tides and Currents Weather Stations Pressure Air Temp Water Temp Dewpoint Dewpoint Depression Visibility Wind Speed Wind Dir Waves Ship Positions

Cinquanta 50

Last reported at 2017-Sep-22 01:57 UTC. Time now 2017-Sep-24 14:20 UTC.
Position N 37°56' E 023°39'.

Length 36 m.

Type: Pleasure craft. MMSI: 249798000.

Date/timePositionNaut miles runAvg speedWind from/ knotsBaromVisibWave heightAir tempDewpointWater temp
2017-Sep-22 01:57N 37°56' E 023°39'0 0.0
2017-Sep-22 01:30N 37°56' E 023°39'0 0.0
2017-Sep-22 01:00N 37°56' E 023°39'0 0.0
2017-Sep-22 00:30N 37°56' E 023°39'0 0.0
2017-Sep-22 00:00N 37°56' E 023°39'0 0.0
2017-Sep-21 23:30N 37°56' E 023°39'0 0.0
2017-Sep-21 23:00N 37°56' E 023°39'0 0.0
2017-Sep-21 22:30N 37°56' E 023°39'0 0.0
2017-Sep-21 21:57N 37°56' E 023°39'0 0.0
2017-Sep-21 21:30N 37°56' E 023°39'0 0.0
2017-Sep-21 21:00N 37°56' E 023°39'0 0.0
2017-Sep-21 20:30N 37°56' E 023°39'0 0.0
2017-Sep-21 20:00N 37°56' E 023°39'0 0.0
2017-Sep-21 19:30N 37°56' E 023°39'0 0.0
2017-Sep-21 19:00N 37°56' E 023°39'0 0.0
2017-Sep-21 18:30N 37°56' E 023°39'0 0.0
2017-Sep-21 18:00N 37°56' E 023°39'0 0.0
2017-Sep-21 17:30N 37°56' E 023°39'0 0.0
2017-Sep-21 16:57N 37°56' E 023°39'0 0.0
2017-Sep-21 16:30N 37°56' E 023°39'0 0.0
2017-Sep-21 16:00N 37°56' E 023°39'0 0.5
2017-Sep-21 15:30N 37°56' E 023°39'3 7.0
2017-Sep-21 15:01N 37°53' E 023°41'4 7.2
2017-Sep-21 14:31N 37°50' E 023°44'4 8.5
2017-Sep-21 14:00N 37°46' E 023°47'47 8.0
2017-Sep-21 08:06N 37°32' E 024°44'1 8.3
2017-Sep-21 08:01N 37°32' E 024°45'4 8.4
2017-Sep-21 07:30N 37°32' E 024°50'11 7.7
2017-Sep-21 06:05N 37°31' E 025°04'1 7.5
2017-Sep-21 06:00N 37°31' E 025°05'4 7.2
2017-Sep-21 05:30N 37°31' E 025°09'4 7.6
2017-Sep-21 05:00N 37°31' E 025°14'6 0.2
2017-Sep-19 23:00N 37°30' E 025°22'4 7.5
2017-Sep-19 22:28N 37°28' E 025°18'4 9.2
2017-Sep-19 22:00N 37°24' E 025°18'2 4.8
2017-Sep-19 21:30N 37°25' E 025°21'0 0.0
2017-Sep-19 20:57N 37°25' E 025°21'0 0.1
2017-Sep-19 20:30N 37°24' E 025°21'0 0.0
2017-Sep-19 20:00N 37°24' E 025°21'0 0.0
2017-Sep-19 19:27N 37°24' E 025°21'0 0.0
2017-Sep-19 19:00N 37°24' E 025°21'0 0.1
2017-Sep-19 18:30N 37°25' E 025°21'0 0.0
2017-Sep-19 18:00N 37°24' E 025°21'0 0.0
2017-Sep-19 17:27N 37°24' E 025°21'0 0.0
2017-Sep-19 16:57N 37°24' E 025°21'0 0.0
2017-Sep-19 16:30N 37°24' E 025°21'0 0.0
2017-Sep-19 16:00N 37°24' E 025°21'0 0.0
2017-Sep-19 15:30N 37°24' E 025°21'0 0.0
2017-Sep-19 15:00N 37°25' E 025°21'0 0.0
2017-Sep-19 14:27N 37°24' E 025°21'0 0.1
2017-Sep-19 14:00N 37°24' E 025°21'0 0.1
2017-Sep-19 13:30N 37°25' E 025°21'0 0.0
2017-Sep-19 13:00N 37°25' E 025°21'0 0.0
2017-Sep-19 12:30N 37°25' E 025°21'0 0.0
2017-Sep-19 12:00N 37°25' E 025°21'0 0.0
2017-Sep-19 11:27N 37°25' E 025°21'0 0.0
2017-Sep-19 11:00N 37°25' E 025°21'0 0.0
2017-Sep-19 10:30N 37°25' E 025°21'0 0.0
2017-Sep-19 10:00N 37°25' E 025°21'0 0.0
2017-Sep-19 09:30N 37°25' E 025°21'0 0.0
2017-Sep-19 08:57N 37°25' E 025°21'0 1.0
2017-Sep-19 08:31N 37°24' E 025°21'1 1.4
2017-Sep-19 07:47N 37°25' E 025°22'0 0.0
2017-Sep-19 07:29N 37°25' E 025°22'0 0.0
2017-Sep-19 06:59N 37°25' E 025°22'0 0.0
2017-Sep-19 06:29N 37°25' E 025°22'0 0.0
2017-Sep-19 05:59N 37°25' E 025°22'0 0.0
2017-Sep-19 05:29N 37°25' E 025°22'0 0.0
2017-Sep-19 04:59N 37°25' E 025°22'0 0.0
2017-Sep-19 04:26N 37°25' E 025°22'0 0.0
2017-Sep-19 03:59N 37°25' E 025°22'0 0.0
2017-Sep-19 03:23N 37°25' E 025°22'0 0.0
2017-Sep-19 02:59N 37°25' E 025°22'0 0.0
2017-Sep-19 02:26N 37°25' E 025°22'0 0.0
2017-Sep-19 01:56N 37°25' E 025°22'0 0.0
2017-Sep-19 01:29N 37°25' E 025°22'0 0.0
2017-Sep-19 00:59N 37°25' E 025°22'0 0.0
2017-Sep-19 00:29N 37°25' E 025°22'0 0.0
2017-Sep-18 23:56N 37°25' E 025°22'0 0.0
2017-Sep-18 23:29N 37°25' E 025°22'0 0.0
2017-Sep-18 22:59N 37°25' E 025°22'0 0.0
2017-Sep-18 22:23N 37°25' E 025°22'0 0.0
2017-Sep-18 21:59N 37°25' E 025°22'0 0.0
2017-Sep-18 21:29N 37°25' E 025°22'0 0.0
2017-Sep-18 20:56N 37°25' E 025°22'0 0.0
2017-Sep-18 20:29N 37°25' E 025°22'0 0.0
2017-Sep-18 19:59N 37°25' E 025°22'0 0.0
2017-Sep-18 19:29N 37°25' E 025°22'0 0.0
2017-Sep-18 18:56N 37°25' E 025°22'0 0.0
2017-Sep-18 18:29N 37°25' E 025°22'0 0.0
2017-Sep-18 17:59N 37°25' E 025°22'0 0.0
2017-Sep-18 17:26N 37°25' E 025°22'0 0.0
2017-Sep-18 16:59N 37°25' E 025°22'0 0.0
2017-Sep-18 16:29N 37°25' E 025°22'0 0.0
2017-Sep-18 15:56N 37°25' E 025°22'0 0.0
2017-Sep-18 15:29N 37°25' E 025°22'0 0.0
2017-Sep-18 14:56N 37°25' E 025°22'0 0.0
2017-Sep-18 14:29N 37°25' E 025°22'0 0.0
2017-Sep-18 13:41N 37°25' E 025°22'0 0.0
2017-Sep-18 13:29N 37°25' E 025°22'0 0.0
2017-Sep-18 12:59N 37°25' E 025°22'0 0.0
2017-Sep-18 12:29N 37°25' E 025°22'0 0.0
2017-Sep-18 11:53N 37°25' E 025°22'0 0.0
2017-Sep-18 11:26N 37°25' E 025°22'0 0.0
2017-Sep-18 10:44N 37°25' E 025°22'0 0.1
2017-Sep-18 10:23N 37°25' E 025°22'0 0.0
2017-Sep-18 09:56N 37°25' E 025°22'0 0.0
2017-Sep-18 09:26N 37°25' E 025°22'0 0.0
2017-Sep-18 08:59N 37°25' E 025°22'0 0.1
2017-Sep-18 08:26N 37°25' E 025°22'1 3.1
2017-Sep-18 08:01N 37°24' E 025°21'1 1.7
2017-Sep-18 07:25N 37°25' E 025°20'0 0.0
2017-Sep-18 06:58N 37°25' E 025°20'0 0.0
2017-Sep-18 06:28N 37°25' E 025°20'0 0.0
2017-Sep-18 05:58N 37°25' E 025°20'0 0.0
2017-Sep-18 05:25N 37°25' E 025°20'0 0.0
2017-Sep-18 04:58N 37°25' E 025°20'0 0.0
2017-Sep-18 04:28N 37°25' E 025°20'0 0.0
2017-Sep-18 03:58N 37°25' E 025°20'0 0.0
2017-Sep-18 03:28N 37°25' E 025°20'0 0.0
2017-Sep-18 02:58N 37°25' E 025°20'0 0.0
2017-Sep-18 02:28N 37°25' E 025°20'0 0.0
2017-Sep-18 01:55N 37°25' E 025°20'0 0.0
2017-Sep-18 01:28N 37°25' E 025°20'0 0.0
2017-Sep-18 00:58N 37°25' E 025°20'0 0.0
2017-Sep-18 00:28N 37°25' E 025°20'0 0.0
2017-Sep-17 23:58N 37°25' E 025°20'0 0.0
2017-Sep-17 23:25N 37°25' E 025°20'0 0.0
2017-Sep-17 22:58N 37°25' E 025°20'0 0.0
2017-Sep-17 22:28N 37°25' E 025°20'0 0.0
2017-Sep-17 21:58N 37°25' E 025°20'0 0.0
2017-Sep-17 21:28N 37°25' E 025°20'0 0.0
2017-Sep-17 20:58N 37°25' E 025°20'0 0.0
2017-Sep-17 20:28N 37°25' E 025°20'0 0.0
2017-Sep-17 19:58N 37°25' E 025°20'0 0.0
2017-Sep-17 19:22N 37°25' E 025°20'0 0.0
2017-Sep-17 18:58N 37°25' E 025°20'0 0.0
2017-Sep-17 18:25N 37°25' E 025°20'0 0.0
2017-Sep-17 17:58N 37°25' E 025°20'0 0.0
2017-Sep-17 17:28N 37°25' E 025°20'0 0.0
2017-Sep-17 16:58N 37°25' E 025°20'0 0.0
2017-Sep-17 16:10N 37°25' E 025°20'0 0.0
2017-Sep-17 15:55N 37°25' E 025°20'0 0.0
2017-Sep-17 15:28N 37°25' E 025°20'0 0.0
2017-Sep-17 14:58N 37°25' E 025°20'0 0.0
2017-Sep-17 14:28N 37°25' E 025°20'0 0.0
2017-Sep-17 13:43N 37°25' E 025°20'0 0.1
2017-Sep-17 13:28N 37°25' E 025°20'0 0.0
2017-Sep-17 12:58N 37°25' E 025°20'0 0.0
2017-Sep-17 12:25N 37°25' E 025°20'0 0.0
2017-Sep-17 11:55N 37°25' E 025°20'0 0.0
2017-Sep-17 11:28N 37°25' E 025°20'0 0.3
2017-Sep-17 10:58N 37°25' E 025°21'0 0.1
2017-Sep-17 10:26N 37°25' E 025°21'0 0.0
2017-Sep-17 09:44N 37°25' E 025°21'0 0.0
2017-Sep-17 09:23N 37°25' E 025°21'0 0.0
2017-Sep-17 08:59N 37°25' E 025°21'0 0.0
2017-Sep-17 08:20N 37°25' E 025°21'0 0.1
2017-Sep-17 07:59N 37°25' E 025°21'0 0.0
2017-Sep-17 07:29N 37°25' E 025°21'0 0.0
2017-Sep-17 06:47N 37°25' E 025°21'0 0.0
2017-Sep-17 06:26N 37°25' E 025°21'0 0.0
2017-Sep-17 05:53N 37°25' E 025°21'0 0.0
2017-Sep-17 05:20N 37°25' E 025°21'0 0.0
2017-Sep-17 04:59N 37°25' E 025°21'0 0.0
2017-Sep-17 04:29N 37°25' E 025°21'0 0.0
2017-Sep-17 03:59N 37°25' E 025°21'0 0.0
2017-Sep-17 03:26N 37°25' E 025°21'0 0.0
2017-Sep-17 02:59N 37°25' E 025°21'0 0.0
2017-Sep-17 02:29N 37°25' E 025°21'0 0.0
2017-Sep-17 01:59N 37°25' E 025°21'0 0.0
2017-Sep-17 01:26N 37°25' E 025°21'0 0.0
2017-Sep-17 00:56N 37°25' E 025°21'0 0.7
2017-Sep-17 00:30N 37°24' E 025°20'5 9.3
2017-Sep-17 00:00N 37°21' E 025°16'5 9.4
2017-Sep-16 23:30N 37°21' E 025°10'7 9.2
2017-Sep-16 22:44N 37°21' E 025°01'2 9.2
2017-Sep-16 22:30N 37°21' E 024°58'5 9.1
2017-Sep-16 22:00N 37°21' E 024°53'5 9.2
2017-Sep-16 21:30N 37°23' E 024°47'54 9.1
2017-Sep-16 15:31N 37°47' E 023°46'0 9.2
2017-Sep-16 15:29N 37°47' E 023°46'4 8.5
2017-Sep-16 15:00N 37°51' E 023°43'5 9.3
2017-Sep-16 14:30N 37°55' E 023°40'1 2.8
2017-Sep-16 13:58N 37°56' E 023°39'0 0.0
2017-Sep-16 13:28N 37°56' E 023°39'0 0.0
2017-Sep-16 12:52N 37°56' E 023°39'0 0.0
2017-Sep-16 12:22N 37°56' E 023°39'0 0.0
2017-Sep-16 11:58N 37°56' E 023°39'0 0.0
2017-Sep-16 11:28N 37°56' E 023°39'0 0.0
2017-Sep-16 10:58N 37°56' E 023°39'0 0.0
2017-Sep-16 10:25N 37°56' E 023°39'0 0.0
2017-Sep-16 09:58N 37°56' E 023°39'0 0.0
2017-Sep-16 09:28N 37°56' E 023°39'0 0.0
2017-Sep-16 08:58N 37°56' E 023°39'0 0.0
2017-Sep-16 08:28N 37°56' E 023°39'0 0.0
2017-Sep-16 07:58N 37°56' E 023°39'0 0.0
2017-Sep-16 07:28N 37°56' E 023°39'0 0.0
2017-Sep-16 06:58N 37°56' E 023°39'0 0.0
2017-Sep-16 06:25N 37°56' E 023°39'0 0.0
2017-Sep-16 05:58N 37°56' E 023°39'0 0.0
2017-Sep-16 05:28N 37°56' E 023°39'0 0.0
2017-Sep-16 04:58N 37°56' E 023°39'0 0.0
2017-Sep-16 04:28N 37°56' E 023°39'0 0.0
2017-Sep-16 03:49N 37°56' E 023°39'0 0.0
2017-Sep-16 03:28N 37°56' E 023°39'0 0.0
2017-Sep-16 02:58N 37°56' E 023°39'0 0.0
2017-Sep-16 02:28N 37°56' E 023°39'0 0.0
2017-Sep-16 01:58N 37°56' E 023°39'0 0.0
2017-Sep-16 01:25N 37°56' E 023°39'0 0.0
2017-Sep-16 00:58N 37°56' E 023°39'0 0.0
2017-Sep-16 00:28N 37°56' E 023°39'0 0.0
2017-Sep-15 23:58N 37°56' E 023°39'0 0.0
2017-Sep-15 23:28N 37°56' E 023°39'0 0.0
2017-Sep-15 22:58N 37°56' E 023°39'0 0.0
2017-Sep-15 22:28N 37°56' E 023°39'0 0.0
2017-Sep-15 21:55N 37°56' E 023°39'0 0.0
2017-Sep-15 21:28N 37°56' E 023°39'0 0.0
2017-Sep-15 20:58N 37°56' E 023°39'0 0.0
2017-Sep-15 20:28N 37°56' E 023°39'0 0.0
2017-Sep-15 19:58N 37°56' E 023°39'0 0.0
2017-Sep-15 19:28N 37°56' E 023°39'0 0.0
2017-Sep-15 18:55N 37°56' E 023°39'0 0.0
2017-Sep-15 18:28N 37°56' E 023°39'  

Dump ship's entire track history